Time;durP1;ratioP1;P1;durP2;ratioP2;P2;SDS_P1;SDS_P2;PMS_P1;PMS_P2;Temp;Humidity;BMP_temperature;BMP_pressure;BME280_temperature;BME280_humidity;BME280_pressure;Samples;Min_cycle;Max_cycle;Signal;HPM_P1;HPM_P2
2021/11/06 00:01:47;;;;;;;26.58;18.95;;;25.90;99.90;;;;;;4178283;28;20075;-67
2021/11/06 00:03:52;;;;;;;28.58;18.77;;;26.00;99.90;;;;;;4168536;28;20052;-66
2021/11/06 00:05:56;;;;;;;36.17;20.05;;;26.10;99.90;;;;;;4178696;28;20052;-67
2021/11/06 00:08:01;;;;;;;32.55;20.15;;;26.10;99.90;;;;;;4190702;28;20032;-66
2021/11/06 00:10:09;;;;;;;39.50;21.20;;;26.00;99.90;;;;;;4187531;28;20055;-67
2021/11/06 00:12:17;;;;;;;39.85;22.35;;;26.00;99.90;;;;;;4181508;28;20159;-68
2021/11/06 00:14:27;;;;;;;34.28;21.13;;;26.00;99.90;;;;;;4198181;28;20131;-67
2021/11/06 00:16:32;;;;;;;30.48;21.48;;;26.00;99.90;;;;;;4191557;28;20503;-67
2021/11/06 00:18:36;;;;;;;27.92;21.45;;;26.10;99.90;;;;;;4192882;28;20045;-67
2021/11/06 00:20:41;;;;;;;32.35;20.45;;;26.20;99.90;;;;;;4191715;28;20028;-67
2021/11/06 00:22:47;;;;;;;31.55;20.65;;;26.30;99.90;;;;;;4185303;28;20055;-67
2021/11/06 00:24:52;;;;;;;31.08;20.98;;;26.20;99.90;;;;;;4195029;28;20124;-67
2021/11/06 00:26:57;;;;;;;32.10;20.08;;;26.20;99.90;;;;;;4194888;28;20051;-66
2021/11/06 00:29:04;;;;;;;30.92;21.30;;;26.20;99.90;;;;;;4191534;28;20049;-67
2021/11/06 00:31:09;;;;;;;29.85;22.10;;;26.40;99.90;;;;;;4186593;28;20079;-66
2021/11/06 00:33:14;;;;;;;30.35;20.50;;;26.50;99.90;;;;;;4186518;28;20894;-67
2021/11/06 00:35:19;;;;;;;28.80;19.80;;;26.40;99.90;;;;;;4189866;28;20127;-66
2021/11/06 00:37:24;;;;;;;30.58;21.33;;;26.40;99.90;;;;;;4191593;28;20072;-66
2021/11/06 00:39:28;;;;;;;34.28;20.98;;;26.30;99.90;;;;;;4188995;28;20057;-66
2021/11/06 00:41:34;;;;;;;34.25;20.48;;;26.40;99.90;;;;;;4185409;28;20466;-66
2021/11/06 00:43:41;;;;;;;29.48;19.65;;;26.40;99.90;;;;;;4190784;28;20151;-67
2021/11/06 00:45:45;;;;;;;31.27;19.95;;;26.40;99.90;;;;;;4151959;28;20044;-67
2021/11/06 00:47:50;;;;;;;29.42;21.00;;;26.50;99.90;;;;;;4178487;28;20048;-66
2021/11/06 00:50:00;;;;;;;30.10;22.55;;;26.50;99.90;;;;;;4189507;28;20060;-66
2021/11/06 00:52:11;;;;;;;32.45;22.25;;;26.40;99.90;;;;;;4179114;28;20594;-67
2021/11/06 00:54:17;;;;;;;32.67;23.10;;;26.50;99.90;;;;;;4189168;28;20053;-66
2021/11/06 00:56:24;;;;;;;33.45;21.52;;;26.60;99.90;;;;;;4189032;28;20056;-67
2021/11/06 00:58:29;;;;;;;28.58;20.13;;;26.60;99.90;;;;;;4179645;28;20041;-67
2021/11/06 01:00:35;;;;;;;30.92;19.48;;;26.70;99.90;;;;;;4189523;28;20055;-66
2021/11/06 01:02:42;;;;;;;31.23;19.70;;;26.70;99.90;;;;;;4183226;28;20045;-67
2021/11/06 01:04:47;;;;;;;26.30;18.35;;;26.80;99.90;;;;;;4193501;28;20048;-67
2021/11/06 01:06:52;;;;;;;33.38;19.75;;;26.80;99.90;;;;;;4194470;28;20039;-66
2021/11/06 01:08:57;;;;;;;27.63;18.05;;;26.90;99.90;;;;;;4188067;28;20140;-66
2021/11/06 01:11:03;;;;;;;27.52;18.00;;;26.80;99.90;;;;;;4181956;28;20298;-68
2021/11/06 01:13:11;;;;;;;23.27;16.92;;;26.80;99.90;;;;;;4180793;28;20036;-66
2021/11/06 01:15:21;;;;;;;25.17;17.00;;;26.80;99.90;;;;;;4188055;28;20494;-66
2021/11/06 01:17:26;;;;;;;25.90;16.48;;;26.90;99.90;;;;;;4186878;28;20576;-67
2021/11/06 01:19:32;;;;;;;24.80;16.20;;;27.00;99.90;;;;;;4181834;28;20063;-67
2021/11/06 01:21:39;;;;;;;25.65;15.57;;;27.10;99.90;;;;;;4174335;28;20056;-67
2021/11/06 01:23:45;;;;;;;22.90;14.27;;;27.00;99.90;;;;;;4178333;28;20253;-67
2021/11/06 01:25:51;;;;;;;29.10;14.57;;;27.10;99.90;;;;;;4195348;28;20036;-66
2021/11/06 01:27:57;;;;;;;21.83;14.57;;;27.20;99.90;;;;;;4188764;28;20041;-67
2021/11/06 01:30:03;;;;;;;19.77;13.27;;;27.20;99.90;;;;;;4180494;28;21147;-67
2021/11/06 01:32:09;;;;;;;25.70;13.73;;;27.30;99.90;;;;;;4174976;28;20391;-67
2021/11/06 01:34:14;;;;;;;24.45;10.82;;;27.40;99.90;;;;;;4183712;28;20098;-67
2021/11/06 01:36:19;;;;;;;17.65;10.80;;;27.50;99.90;;;;;;4171491;28;21215;-67
2021/11/06 01:38:26;;;;;;;18.70;11.10;;;27.50;99.90;;;;;;4183215;28;20098;-68
2021/11/06 01:40:31;;;;;;;18.65;10.27;;;27.50;99.90;;;;;;4168167;28;20159;-66
2021/11/06 01:42:40;;;;;;;18.10;10.88;;;27.60;99.90;;;;;;4168456;28;21854;-67
2021/11/06 01:44:44;;;;;;;15.20;10.20;;;27.60;99.90;;;;;;4180250;28;20074;-66
2021/11/06 01:46:52;;;;;;;21.08;10.60;;;27.70;99.90;;;;;;4169675;28;20119;-67
2021/11/06 01:48:57;;;;;;;18.55;11.70;;;27.70;99.90;;;;;;4191624;28;20048;-68
2021/11/06 01:51:02;;;;;;;21.45;12.35;;;27.80;99.90;;;;;;4189572;28;20124;-67
2021/11/06 01:53:07;;;;;;;20.80;12.32;;;27.90;99.90;;;;;;4188000;28;20040;-67
2021/11/06 01:55:12;;;;;;;21.70;12.00;;;27.90;99.90;;;;;;4194204;28;20048;-68
2021/11/06 01:57:17;;;;;;;19.98;11.82;;;27.90;99.90;;;;;;4193785;28;20045;-67
2021/11/06 01:59:23;;;;;;;23.30;13.05;;;28.00;99.90;;;;;;4189859;28;20546;-69
2021/11/06 02:01:31;;;;;;;22.27;13.18;;;28.10;99.90;;;;;;4187904;28;20434;-67
2021/11/06 02:03:36;;;;;;;23.83;12.75;;;28.10;99.90;;;;;;4193084;28;20119;-68
2021/11/06 02:05:41;;;;;;;23.52;12.15;;;28.20;99.90;;;;;;4194630;28;20040;-69
2021/11/06 02:07:46;;;;;;;24.55;12.73;;;28.30;99.90;;;;;;4195055;28;20564;-68
2021/11/06 02:09:51;;;;;;;25.08;13.75;;;28.30;99.90;;;;;;4197462;28;20490;-69
2021/11/06 02:11:57;;;;;;;23.45;15.20;;;28.30;99.90;;;;;;4186699;28;20094;-69
2021/11/06 02:14:08;;;;;;;23.52;13.30;;;28.30;99.90;;;;;;4192292;28;20056;-68
2021/11/06 02:16:13;;;;;;;21.90;11.50;;;28.40;99.90;;;;;;4193612;28;20140;-68
2021/11/06 02:18:18;;;;;;;23.15;12.60;;;28.40;99.90;;;;;;4194836;28;20047;-69
2021/11/06 02:20:23;;;;;;;20.88;12.20;;;28.40;99.90;;;;;;4189311;28;20531;-69
2021/11/06 02:22:30;;;;;;;18.98;12.75;;;28.50;99.90;;;;;;4186808;28;20036;-69
2021/11/06 02:24:35;;;;;;;22.45;12.95;;;28.50;99.90;;;;;;4193956;28;20051;-69
2021/11/06 02:26:41;;;;;;;20.65;12.65;;;28.60;99.90;;;;;;4194352;28;20044;-68
2021/11/06 02:28:51;;;;;;;21.98;10.35;;;28.60;99.90;;;;;;4193268;28;20529;-69
2021/11/06 02:30:56;;;;;;;16.48;10.60;;;28.70;99.90;;;;;;4187462;28;20043;-68
2021/11/06 02:33:01;;;;;;;21.25;11.32;;;28.80;99.90;;;;;;4184957;28;20037;-69
2021/11/06 02:35:07;;;;;;;19.13;10.60;;;28.80;99.90;;;;;;4193934;28;20450;-69
2021/11/06 02:37:12;;;;;;;21.33;11.07;;;28.80;99.90;;;;;;4194205;28;20562;-69
2021/11/06 02:39:20;;;;;;;16.10;9.70;;;28.90;99.90;;;;;;4186756;28;20501;-69
2021/11/06 02:41:29;;;;;;;15.77;9.35;;;29.00;99.90;;;;;;4192042;28;21034;-69
2021/11/06 02:43:33;;;;;;;14.00;7.70;;;29.00;98.70;;;;;;4190611;28;20044;-69
2021/11/06 02:45:41;;;;;;;12.75;7.75;;;29.00;98.10;;;;;;4194183;28;20430;-69
2021/11/06 02:47:46;;;;;;;14.05;8.13;;;29.00;97.40;;;;;;4193683;28;20072;-69
2021/11/06 02:49:51;;;;;;;16.83;8.32;;;29.00;97.70;;;;;;4190498;28;20067;-69
2021/11/06 02:52:03;;;;;;;18.67;8.80;;;29.10;98.30;;;;;;4187234;28;20127;-69
2021/11/06 02:54:27;;;;;;;14.35;9.20;;;29.10;97.60;;;;;;4196791;28;20044;-69
2021/11/06 02:57:14;;;;;;;17.20;9.50;;;29.20;98.70;;;;;;4150046;28;20546;-68
2021/11/06 02:59:41;;;;;;;15.52;9.15;;;29.20;98.00;;;;;;4172174;28;20044;-69
2021/11/06 03:01:55;;;;;;;11.20;6.60;;;29.30;97.80;;;;;;4150634;28;20056;-68
2021/11/06 03:04:23;;;;;;;11.98;6.20;;;29.30;95.30;;;;;;4117375;28;20077;-69
2021/11/06 03:06:27;;;;;;;12.65;6.60;;;29.30;95.80;;;;;;4141195;28;20095;-69
2021/11/06 03:08:32;;;;;;;15.88;8.25;;;29.40;96.00;;;;;;4133061;28;20050;-69
2021/11/06 03:10:37;;;;;;;12.10;7.90;;;29.50;97.10;;;;;;4118505;28;20496;-69
2021/11/06 03:13:05;;;;;;;12.68;7.65;;;29.50;97.00;;;;;;4134979;28;20529;-69
2021/11/06 03:15:31;;;;;;;13.80;7.32;;;29.60;96.80;;;;;;4078408;29;20655;-69
2021/11/06 03:17:37;;;;;;;10.90;6.93;;;29.60;96.70;;;;;;4069522;29;20052;-68
2021/11/06 03:19:46;;;;;;;13.38;7.55;;;29.60;95.80;;;;;;4074250;29;20233;-68
2021/11/06 03:22:04;;;;;;;13.55;6.85;;;29.70;96.10;;;;;;3999208;29;20064;-68
2021/11/06 03:24:28;;;;;;;9.50;5.75;;;29.70;95.60;;;;;;4013025;29;20056;-68
2021/11/06 03:26:32;;;;;;;9.30;5.60;;;29.80;95.50;;;;;;3997033;29;20095;-68
2021/11/06 03:28:36;;;;;;;9.73;6.10;;;29.90;95.40;;;;;;4003449;29;20906;-69
2021/11/06 03:30:41;;;;;;;8.68;6.07;;;29.90;94.20;;;;;;3993880;29;20061;-68
2021/11/06 03:32:45;;;;;;;15.52;6.40;;;29.90;94.80;;;;;;3987957;29;20590;-69
2021/11/06 03:34:50;;;;;;;10.23;6.30;;;30.00;94.40;;;;;;3991109;29;20064;-68
2021/11/06 03:36:55;;;;;;;9.27;5.88;;;30.00;94.50;;;;;;4025727;29;20120;-67
2021/11/06 03:39:00;;;;;;;8.27;5.90;;;30.10;94.40;;;;;;4029668;29;20596;-68
2021/11/06 03:41:05;;;;;;;9.90;6.15;;;30.10;93.70;;;;;;4047992;29;20056;-68
2021/11/06 03:43:09;;;;;;;9.60;5.72;;;30.20;93.70;;;;;;4053250;29;20052;-68
2021/11/06 03:45:14;;;;;;;8.55;5.70;;;30.20;93.40;;;;;;4066262;29;20147;-68
2021/11/06 03:47:23;;;;;;;11.55;5.70;;;30.40;92.40;;;;;;4061425;29;20562;-68
2021/11/06 03:49:31;;;;;;;7.72;5.70;;;30.30;91.70;;;;;;4076936;29;20059;-69
2021/11/06 03:51:36;;;;;;;12.05;5.50;;;30.30;92.10;;;;;;4059771;28;20518;-69
2021/11/06 03:53:41;;;;;;;9.15;5.80;;;30.30;92.10;;;;;;4136645;28;20050;-69
2021/11/06 03:55:46;;;;;;;10.85;6.03;;;30.30;91.90;;;;;;4137619;28;20235;-68
2021/11/06 03:57:52;;;;;;;8.35;5.85;;;30.40;91.60;;;;;;4132003;28;20050;-69
2021/11/06 03:59:56;;;;;;;8.85;6.03;;;30.60;91.90;;;;;;4173526;28;20078;-69
2021/11/06 04:02:03;;;;;;;10.80;6.07;;;30.50;92.00;;;;;;4183385;28;20075;-69
2021/11/06 04:04:08;;;;;;;10.82;6.00;;;30.50;92.10;;;;;;4181039;28;20055;-69
2021/11/06 04:06:14;;;;;;;8.65;5.80;;;30.50;92.00;;;;;;4171955;28;20128;-69
2021/11/06 04:08:19;;;;;;;9.65;5.53;;;30.50;91.40;;;;;;4187770;28;20083;-69
2021/11/06 04:10:24;;;;;;;8.32;5.82;;;30.60;91.70;;;;;;4194384;28;20040;-69
2021/11/06 04:12:28;;;;;;;8.75;5.43;;;30.70;91.60;;;;;;4186865;28;20041;-68
2021/11/06 04:14:37;;;;;;;7.32;5.75;;;30.80;91.50;;;;;;4196768;28;20045;-69
2021/11/06 04:16:43;;;;;;;8.60;5.82;;;30.80;91.30;;;;;;4192598;28;20094;-69
2021/11/06 04:18:49;;;;;;;9.32;5.60;;;30.90;91.10;;;;;;4191811;28;20597;-70
2021/11/06 04:20:53;;;;;;;11.05;5.93;;;31.00;91.20;;;;;;4187753;28;20053;-68
2021/11/06 04:22:58;;;;;;;8.60;5.82;;;31.10;90.70;;;;;;4192964;28;20348;-68
2021/11/06 04:25:03;;;;;;;10.75;5.88;;;31.00;90.50;;;;;;4199566;28;20040;-68
2021/11/06 04:27:21;;;;;;;9.27;5.50;;;30.90;90.50;;;;;;4190932;28;20127;-68
2021/11/06 04:29:25;;;;;;;9.55;5.43;;;30.80;90.10;;;;;;4190756;28;20045;-68
2021/11/06 04:31:32;;;;;;;7.53;5.18;;;30.70;90.10;;;;;;4186299;28;20106;-68
2021/11/06 04:33:37;;;;;;;9.65;5.75;;;30.70;90.10;;;;;;4189824;28;20083;-69
2021/11/06 04:35:43;;;;;;;10.90;6.03;;;30.60;90.40;;;;;;4194313;28;20439;-69
2021/11/06 04:37:48;;;;;;;9.80;6.00;;;30.60;90.90;;;;;;4193267;28;20041;-69
2021/11/06 04:39:56;;;;;;;13.18;5.80;;;30.70;91.20;;;;;;4193534;28;20148;-68
2021/11/06 04:42:18;;;;;;;9.05;5.68;;;30.80;91.50;;;;;;4182783;28;20043;-69
2021/11/06 04:44:24;;;;;;;9.85;5.72;;;30.80;91.70;;;;;;4195760;28;20072;-69
2021/11/06 04:46:30;;;;;;;9.48;5.35;;;30.80;91.30;;;;;;4192950;28;20102;-69
2021/11/06 04:48:34;;;;;;;8.25;5.15;;;30.80;91.00;;;;;;4194748;28;20475;-69
2021/11/06 04:50:44;;;;;;;8.85;5.80;;;30.90;90.90;;;;;;4188254;28;20176;-68
2021/11/06 04:52:49;;;;;;;10.45;5.60;;;30.90;91.20;;;;;;4190250;28;20511;-69
2021/11/06 04:54:53;;;;;;;8.05;5.80;;;30.90;91.20;;;;;;4196621;28;20051;-69
2021/11/06 04:56:58;;;;;;;9.40;5.80;;;30.90;91.30;;;;;;4193887;28;20136;-69
2021/11/06 04:59:02;;;;;;;9.00;5.82;;;30.90;91.40;;;;;;4194186;28;20415;-69
2021/11/06 05:01:07;;;;;;;9.23;5.97;;;31.00;91.50;;;;;;4191705;28;20044;-69
2021/11/06 05:03:14;;;;;;;10.63;5.90;;;31.00;91.50;;;;;;4189903;28;20067;-69
2021/11/06 05:05:22;;;;;;;9.32;5.93;;;31.10;91.40;;;;;;4197432;28;20048;-69
2021/11/06 05:07:31;;;;;;;9.82;6.05;;;31.20;90.80;;;;;;4193492;28;20041;-69
2021/11/06 05:09:35;;;;;;;9.95;5.68;;;31.30;91.20;;;;;;4194797;28;20406;-68
2021/11/06 05:11:41;;;;;;;7.75;5.65;;;31.50;89.10;;;;;;4187789;28;20076;-69
2021/11/06 05:13:46;;;;;;;8.35;5.35;;;31.50;89.60;;;;;;4192409;28;20063;-69
2021/11/06 05:15:50;;;;;;;10.93;5.90;;;31.40;89.10;;;;;;4194648;28;20175;-69
2021/11/06 05:17:55;;;;;;;9.02;5.68;;;31.40;89.70;;;;;;4192016;28;21090;-68
2021/11/06 05:19:59;;;;;;;11.75;5.45;;;31.40;89.40;;;;;;4193959;28;20036;-69
2021/11/06 05:22:04;;;;;;;12.48;5.75;;;31.30;89.40;;;;;;4189787;28;20081;-69
2021/11/06 05:24:09;;;;;;;20.00;7.28;;;31.20;89.30;;;;;;4190589;28;20036;-67
2021/11/06 05:26:15;;;;;;;14.32;7.38;;;31.30;90.20;;;;;;4195212;28;20511;-69
2021/11/06 05:28:20;;;;;;;12.15;5.95;;;31.30;90.50;;;;;;4193112;28;20515;-68
2021/11/06 05:30:25;;;;;;;15.60;6.63;;;31.20;89.90;;;;;;4189140;28;20123;-68
2021/11/06 05:32:29;;;;;;;10.20;5.82;;;31.20;90.30;;;;;;4186940;28;20048;-68
2021/11/06 05:34:33;;;;;;;8.52;6.07;;;31.20;90.40;;;;;;4199052;28;20044;-67
2021/11/06 05:36:38;;;;;;;9.88;5.70;;;31.20;89.70;;;;;;4194451;28;20105;-67
2021/11/06 05:38:42;;;;;;;7.45;5.35;;;31.20;90.10;;;;;;4195469;28;20536;-68
2021/11/06 05:40:47;;;;;;;9.25;5.72;;;31.20;90.00;;;;;;4191245;28;20040;-68
2021/11/06 05:42:51;;;;;;;11.32;6.25;;;31.20;89.60;;;;;;4187759;28;20078;-68
2021/11/06 05:44:56;;;;;;;10.00;5.53;;;31.10;88.30;;;;;;4197892;28;20044;-67
2021/11/06 05:47:00;;;;;;;10.15;5.60;;;31.20;88.60;;;;;;4193876;28;20075;-68
2021/11/06 05:49:05;;;;;;;11.93;5.47;;;31.30;88.60;;;;;;4192954;28;20051;-67
2021/11/06 05:51:13;;;;;;;9.20;5.55;;;31.40;88.80;;;;;;4189962;28;20053;-67
2021/11/06 05:53:17;;;;;;;10.18;6.00;;;31.50;88.30;;;;;;4188896;28;20037;-68
2021/11/06 05:55:22;;;;;;;11.48;6.30;;;31.50;87.90;;;;;;4193980;28;20431;-68
2021/11/06 05:57:28;;;;;;;11.63;5.75;;;31.50;88.30;;;;;;4193445;28;20052;-67
2021/11/06 05:59:33;;;;;;;9.30;6.20;;;31.70;87.90;;;;;;4192557;28;20523;-67
2021/11/06 06:01:38;;;;;;;12.90;5.90;;;31.80;87.30;;;;;;4188243;28;20376;-68
2021/11/06 06:03:44;;;;;;;9.88;5.85;;;31.90;87.30;;;;;;4189137;28;20269;-67
2021/11/06 06:05:49;;;;;;;9.15;5.63;;;32.00;87.50;;;;;;4194993;28;20040;-66
2021/11/06 06:07:54;;;;;;;8.48;6.10;;;32.00;87.70;;;;;;4198284;28;20048;-67
2021/11/06 06:09:58;;;;;;;10.63;6.32;;;31.90;88.30;;;;;;4191950;28;20152;-66
2021/11/06 06:12:04;;;;;;;13.35;6.00;;;31.80;86.80;;;;;;4179544;28;20143;-67
2021/11/06 06:14:09;;;;;;;8.65;6.03;;;31.70;87.00;;;;;;4188525;28;20056;-67
2021/11/06 06:16:14;;;;;;;8.68;5.93;;;31.70;88.30;;;;;;4192107;28;20395;-67
2021/11/06 06:18:21;;;;;;;14.25;5.75;;;31.70;88.50;;;;;;4178374;28;20053;-67
2021/11/06 06:20:27;;;;;;;8.32;5.47;;;31.60;87.20;;;;;;4190303;28;20036;-66
2021/11/06 06:22:32;;;;;;;11.52;5.65;;;31.60;86.60;;;;;;4182854;28;20578;-67
2021/11/06 06:24:37;;;;;;;11.05;5.65;;;31.70;86.90;;;;;;4192251;28;20094;-67
2021/11/06 06:26:43;;;;;;;9.27;5.60;;;31.70;86.40;;;;;;4190971;28;20084;-67
2021/11/06 06:28:47;;;;;;;9.13;5.60;;;31.70;86.60;;;;;;4191953;28;20131;-67
2021/11/06 06:30:52;;;;;;;10.73;5.50;;;31.70;86.80;;;;;;4187268;28;20295;-67
2021/11/06 06:32:56;;;;;;;11.00;5.90;;;31.70;87.00;;;;;;4186140;28;20045;-67
2021/11/06 06:35:01;;;;;;;10.27;5.78;;;31.80;86.30;;;;;;4191217;28;20273;-67
2021/11/06 06:37:05;;;;;;;11.18;5.85;;;31.80;86.30;;;;;;4189704;28;20055;-67
2021/11/06 06:39:10;;;;;;;9.25;5.70;;;31.70;86.20;;;;;;4191181;28;20052;-68
2021/11/06 06:41:15;;;;;;;10.40;6.28;;;31.70;86.20;;;;;;4187160;28;20044;-67
2021/11/06 06:43:20;;;;;;;9.82;5.82;;;31.70;86.20;;;;;;4186692;28;20503;-66
2021/11/06 06:45:25;;;;;;;10.25;6.20;;;31.70;86.80;;;;;;4191531;28;20040;-66
2021/11/06 06:47:30;;;;;;;9.63;6.25;;;31.80;86.40;;;;;;4190899;28;20132;-66
2021/11/06 06:49:35;;;;;;;10.00;5.43;;;31.90;86.50;;;;;;4190855;28;20048;-67
2021/11/06 06:51:39;;;;;;;9.85;5.97;;;32.00;85.80;;;;;;4182401;28;20463;-67
2021/11/06 06:53:43;;;;;;;9.18;5.90;;;32.10;86.70;;;;;;4184878;28;20113;-66
2021/11/06 06:55:49;;;;;;;8.85;5.60;;;32.10;86.60;;;;;;4196017;28;20086;-67
2021/11/06 06:57:54;;;;;;;8.65;5.53;;;32.20;86.30;;;;;;4189774;28;20127;-67
2021/11/06 06:59:58;;;;;;;8.65;5.53;;;32.30;86.00;;;;;;4191452;28;20154;-67
2021/11/06 07:02:06;;;;;;;10.23;5.55;;;32.30;85.20;;;;;;4177819;28;20047;-67
2021/11/06 07:04:10;;;;;;;12.10;5.80;;;32.30;85.10;;;;;;4190808;28;20060;-67
2021/11/06 07:06:16;;;;;;;9.27;5.65;;;32.30;86.10;;;;;;4191160;28;20044;-67
2021/11/06 07:08:23;;;;;;;12.95;6.40;;;32.10;86.20;;;;;;4192175;28;20041;-67
2021/11/06 07:10:28;;;;;;;9.50;6.20;;;32.10;86.90;;;;;;4189255;28;20040;-68
2021/11/06 07:12:33;;;;;;;9.50;6.63;;;32.10;86.50;;;;;;4181433;28;20090;-67
2021/11/06 07:14:38;;;;;;;10.80;6.22;;;32.10;86.80;;;;;;4175803;28;20051;-67
2021/11/06 07:16:44;;;;;;;11.85;6.32;;;32.00;86.90;;;;;;4193850;28;20052;-68
2021/11/06 07:18:53;;;;;;;11.20;5.78;;;31.90;86.70;;;;;;4192940;28;20072;-67
2021/11/06 07:20:57;;;;;;;11.15;6.43;;;31.90;86.60;;;;;;4188897;28;20045;-68
2021/11/06 07:23:02;;;;;;;9.65;7.15;;;31.80;87.20;;;;;;4184479;28;20509;-68
2021/11/06 07:25:13;;;;;;;8.70;6.45;;;31.70;87.00;;;;;;4193784;28;20193;-67
2021/11/06 07:27:19;;;;;;;10.90;6.47;;;31.60;87.70;;;;;;4193154;28;20041;-67
2021/11/06 07:29:25;;;;;;;13.07;6.70;;;31.70;87.30;;;;;;4191365;28;20064;-68
2021/11/06 07:31:32;;;;;;;10.00;6.18;;;31.60;85.60;;;;;;4185536;28;20040;-68
2021/11/06 07:33:37;;;;;;;12.55;6.45;;;31.50;87.10;;;;;;4191395;28;20048;-67
2021/11/06 07:35:42;;;;;;;11.10;6.20;;;31.50;87.50;;;;;;4191443;28;20041;-67
2021/11/06 07:37:54;;;;;;;15.30;6.28;;;31.60;87.50;;;;;;4193134;28;20036;-67
2021/11/06 07:39:59;;;;;;;12.90;6.72;;;31.60;87.60;;;;;;4192190;28;20561;-66
2021/11/06 07:42:19;;;;;;;12.23;6.80;;;31.60;86.40;;;;;;4181458;28;20499;-67
2021/11/06 07:44:29;;;;;;;10.68;6.60;;;31.70;87.10;;;;;;4193928;28;20518;-67
2021/11/06 07:46:40;;;;;;;11.05;6.72;;;31.80;86.80;;;;;;4191751;28;20135;-67
2021/11/06 07:48:48;;;;;;;11.65;6.40;;;31.80;85.50;;;;;;4191819;28;20051;-66
2021/11/06 07:50:53;;;;;;;11.00;6.53;;;31.90;85.50;;;;;;4187812;28;20041;-67
2021/11/06 07:52:58;;;;;;;11.88;6.07;;;31.90;85.90;;;;;;4185820;28;20044;-68
2021/11/06 07:55:03;;;;;;;12.68;6.50;;;31.90;86.00;;;;;;4189445;28;20044;-67
2021/11/06 07:57:09;;;;;;;12.18;6.32;;;31.90;86.30;;;;;;4187276;28;20068;-67
2021/11/06 07:59:13;;;;;;;16.55;6.85;;;31.80;86.50;;;;;;4187841;28;20040;-68
2021/11/06 08:01:20;;;;;;;10.13;6.28;;;31.80;87.00;;;;;;4185658;28;20131;-67
2021/11/06 08:03:25;;;;;;;12.48;6.20;;;31.80;87.30;;;;;;4185149;28;20098;-67
2021/11/06 08:05:30;;;;;;;12.10;6.18;;;31.80;86.40;;;;;;4187055;28;20135;-67
2021/11/06 08:07:34;;;;;;;13.82;6.55;;;31.80;85.20;;;;;;4188157;28;20041;-68
2021/11/06 08:09:39;;;;;;;11.77;7.72;;;31.70;86.30;;;;;;4190022;28;20127;-67
2021/11/06 08:11:47;;;;;;;13.75;7.72;;;31.70;86.90;;;;;;4183227;28;20055;-68
2021/11/06 08:13:52;;;;;;;11.32;6.97;;;31.70;86.70;;;;;;4190072;28;20056;-67
2021/11/06 08:15:58;;;;;;;12.15;7.68;;;31.70;86.50;;;;;;4195477;28;20041;-67
2021/11/06 08:18:02;;;;;;;11.95;8.32;;;31.70;86.90;;;;;;4194302;28;20076;-66
2021/11/06 08:20:08;;;;;;;15.02;9.07;;;31.70;86.80;;;;;;4193467;28;20660;-67
2021/11/06 08:22:12;;;;;;;14.13;7.50;;;31.70;86.70;;;;;;4180683;28;20066;-67
2021/11/06 08:24:19;;;;;;;12.98;7.28;;;31.70;86.90;;;;;;4193712;28;20055;-66
2021/11/06 08:26:23;;;;;;;13.07;6.53;;;31.70;86.90;;;;;;4194254;28;20491;-67
2021/11/06 08:28:31;;;;;;;10.98;6.65;;;31.70;87.10;;;;;;4192948;28;20048;-66
2021/11/06 08:30:36;;;;;;;12.48;7.03;;;31.80;86.80;;;;;;4190280;28;20041;-67
2021/11/06 08:32:40;;;;;;;10.07;6.63;;;31.80;86.80;;;;;;4185004;28;20055;-67
2021/11/06 08:34:46;;;;;;;10.45;6.38;;;31.80;86.20;;;;;;4193263;28;20044;-66
2021/11/06 08:36:51;;;;;;;10.05;6.60;;;31.80;86.50;;;;;;4193358;28;20084;-67
2021/11/06 08:38:56;;;;;;;8.88;6.45;;;31.70;85.70;;;;;;4192902;28;20132;-66
2021/11/06 08:41:01;;;;;;;11.27;6.13;;;31.70;86.40;;;;;;4186607;28;20534;-67
2021/11/06 08:43:05;;;;;;;7.65;5.78;;;31.70;86.10;;;;;;4180930;28;20094;-66
2021/11/06 08:45:12;;;;;;;8.43;5.95;;;31.70;86.80;;;;;;4187758;28;20151;-66
2021/11/06 08:47:20;;;;;;;8.73;6.43;;;31.70;86.70;;;;;;4192282;28;20131;-67
2021/11/06 08:49:28;;;;;;;13.52;6.45;;;31.70;86.80;;;;;;4191525;28;20430;-68
2021/11/06 08:51:34;;;;;;;10.68;6.10;;;31.70;86.90;;;;;;4183092;28;20117;-66
2021/11/06 08:53:40;;;;;;;11.52;6.10;;;31.70;85.90;;;;;;4188790;28;20068;-66
2021/11/06 08:55:44;;;;;;;13.05;6.63;;;31.60;86.70;;;;;;4192480;28;20043;-66
2021/11/06 08:57:49;;;;;;;10.65;6.30;;;31.70;87.20;;;;;;4192221;28;20392;-67
2021/11/06 08:59:59;;;;;;;9.88;6.15;;;31.70;88.30;;;;;;4191938;28;20056;-67
2021/11/06 09:02:06;;;;;;;9.93;6.05;;;31.60;87.10;;;;;;4185986;28;20453;-67
2021/11/06 09:04:12;;;;;;;13.52;6.28;;;31.60;86.80;;;;;;4189785;28;20079;-67
2021/11/06 09:06:18;;;;;;;11.73;6.00;;;31.50;87.20;;;;;;4192318;28;20271;-67
2021/11/06 09:08:31;;;;;;;10.43;6.07;;;31.50;86.90;;;;;;4191011;28;20602;-68
2021/11/06 09:10:36;;;;;;;13.40;6.22;;;31.60;87.20;;;;;;4189512;28;20044;-67
2021/11/06 09:12:42;;;;;;;11.50;6.38;;;31.60;86.40;;;;;;4183798;28;20048;-67
2021/11/06 09:14:46;;;;;;;15.23;5.88;;;31.50;86.70;;;;;;4189327;28;20392;-67
2021/11/06 09:16:51;;;;;;;9.32;5.32;;;31.60;86.30;;;;;;4192317;28;20040;-67
2021/11/06 09:18:55;;;;;;;11.95;5.63;;;31.50;87.10;;;;;;4192124;28;20058;-67
2021/11/06 09:21:00;;;;;;;14.57;6.82;;;31.50;86.30;;;;;;4187957;28;20071;-67
2021/11/06 09:23:04;;;;;;;11.65;6.60;;;31.50;87.20;;;;;;4184210;28;20048;-67
2021/11/06 09:25:09;;;;;;;14.23;5.90;;;31.50;87.40;;;;;;4192225;28;20072;-66
2021/11/06 09:27:14;;;;;;;13.60;6.05;;;31.50;87.20;;;;;;4192051;28;20411;-67
2021/11/06 09:29:19;;;;;;;12.15;5.57;;;31.50;87.60;;;;;;4191756;28;20052;-67
2021/11/06 09:31:24;;;;;;;10.00;5.15;;;31.50;86.40;;;;;;4184068;28;20052;-67
2021/11/06 09:33:31;;;;;;;9.93;5.32;;;31.50;87.50;;;;;;4189000;28;20518;-67
2021/11/06 09:35:36;;;;;;;9.65;5.45;;;31.50;88.20;;;;;;4190230;28;20206;-68
2021/11/06 09:37:48;;;;;;;11.77;5.53;;;31.40;88.00;;;;;;4191229;28;20055;-68
2021/11/06 09:39:54;;;;;;;10.30;5.50;;;31.40;88.10;;;;;;4188593;28;20863;-67
2021/11/06 09:42:03;;;;;;;13.35;5.50;;;31.40;87.90;;;;;;4183445;28;20056;-68
2021/11/06 09:44:08;;;;;;;12.20;5.15;;;31.30;88.10;;;;;;4190750;28;20056;-67
2021/11/06 09:46:13;;;;;;;12.85;5.30;;;31.30;88.20;;;;;;4185570;28;20593;-68
2021/11/06 09:48:22;;;;;;;12.88;5.15;;;31.30;88.30;;;;;;4190691;28;20521;-67
2021/11/06 09:50:26;;;;;;;7.72;5.00;;;31.30;88.90;;;;;;4190882;28;20499;-68
2021/11/06 09:52:31;;;;;;;9.50;5.38;;;31.30;88.70;;;;;;4179879;28;20573;-68
2021/11/06 09:54:35;;;;;;;11.25;5.15;;;31.20;88.80;;;;;;4188758;28;20041;-67
2021/11/06 09:56:39;;;;;;;10.23;5.05;;;31.20;88.10;;;;;;4189411;28;20102;-68
2021/11/06 09:58:44;;;;;;;9.43;5.20;;;31.20;89.20;;;;;;4190712;28;20413;-67
2021/11/06 10:00:52;;;;;;;13.75;5.07;;;31.10;89.30;;;;;;4187163;28;20045;-68
2021/11/06 10:02:57;;;;;;;10.70;5.22;;;31.10;88.60;;;;;;4184936;28;20478;-69
2021/11/06 10:05:02;;;;;;;13.98;6.00;;;31.10;89.20;;;;;;4190227;28;20044;-67
2021/11/06 10:07:17;;;;;;;23.45;11.55;;;31.00;89.40;;;;;;4190575;28;20582;-68
2021/11/06 10:09:22;;;;;;;28.85;17.88;;;31.00;90.00;;;;;;4189214;28;20076;-67
2021/11/06 10:11:29;;;;;;;26.17;16.10;;;31.00;89.80;;;;;;4183410;28;20586;-67
2021/11/06 10:13:34;;;;;;;23.60;14.95;;;31.00;90.10;;;;;;4187114;28;20099;-67
2021/11/06 10:15:43;;;;;;;24.35;13.43;;;31.00;90.40;;;;;;4186550;28;20093;-68
2021/11/06 10:17:48;;;;;;;20.63;10.63;;;30.90;90.50;;;;;;4189255;28;20142;-66
2021/11/06 10:19:54;;;;;;;19.80;11.35;;;30.90;90.60;;;;;;4189315;28;20059;-67
2021/11/06 10:22:17;;;;;;;19.50;8.50;;;30.80;90.60;;;;;;4179928;28;20303;-67
2021/11/06 10:24:37;;;;;;;14.20;9.50;;;30.80;90.60;;;;;;4189705;28;20167;-67
2021/11/06 10:26:48;;;;;;;12.88;7.40;;;30.80;90.80;;;;;;4190275;28;20447;-67
2021/11/06 10:29:12;;;;;;;17.73;8.57;;;30.80;90.70;;;;;;4190171;28;20032;-67
2021/11/06 10:31:17;;;;;;;16.67;8.00;;;30.70;90.90;;;;;;4182672;28;20090;-67
2021/11/06 10:33:25;;;;;;;9.80;7.07;;;30.70;90.90;;;;;;4184661;28;20611;-67
2021/11/06 10:35:37;;;;;;;14.05;6.97;;;30.70;91.10;;;;;;4187792;28;20052;-65
2021/11/06 10:37:42;;;;;;;20.27;8.10;;;30.70;91.20;;;;;;4188757;28;20350;-68
2021/11/06 10:39:59;;;;;;;15.13;7.78;;;30.60;91.20;;;;;;4187033;28;20117;-68
2021/11/06 10:42:13;;;;;;;15.25;7.65;;;30.60;91.40;;;;;;4182321;28;20471;-68
2021/11/06 10:44:21;;;;;;;16.58;7.65;;;30.60;91.40;;;;;;4189734;28;20044;-68
2021/11/06 10:46:29;;;;;;;22.33;9.43;;;30.60;91.60;;;;;;4190557;28;20307;-68
2021/11/06 10:48:35;;;;;;;29.48;10.40;;;30.60;92.00;;;;;;4189371;28;20040;-68
2021/11/06 10:50:58;;;;;;;37.67;9.80;;;30.50;92.40;;;;;;4187920;28;20132;-69